Time;durP1;ratioP1;P1;durP2;ratioP2;P2;SDS_P1;SDS_P2;PMS_P1;PMS_P2;Temp;Humidity;BMP_temperature;BMP_pressure;BME280_temperature;BME280_humidity;BME280_pressure;Samples;Min_cycle;Max_cycle;Signal;HPM_P1;HPM_P2
2021/10/16 00:02:03;;;;;;;;;;;11.50;99.90;;;;;;5032885;28;19905;-74
2021/10/16 00:04:29;;;;;;;;;;;11.60;99.90;;;;;;5032673;28;20051;-74
2021/10/16 00:06:55;;;;;;;;;;;11.60;99.90;;;;;;5032646;28;20368;-75
2021/10/16 00:09:20;;;;;;;;;;;11.60;99.90;;;;;;5032756;28;19905;-74
2021/10/16 00:11:46;;;;;;;;;;;11.60;99.90;;;;;;5032594;28;19912;-74
2021/10/16 00:14:12;;;;;;;;;;;11.60;99.90;;;;;;5032593;28;20264;-74
2021/10/16 00:16:37;;;;;;;;;;;11.70;99.90;;;;;;5032328;28;19950;-75
2021/10/16 00:19:05;;;;;;;;;;;11.80;99.90;;;;;;5032472;28;19912;-74
2021/10/16 00:21:30;;;;;;;;;;;11.80;99.90;;;;;;5032472;28;19935;-75
2021/10/16 00:23:56;;;;;;;;;;;11.80;99.90;;;;;;5032524;28;19905;-74
2021/10/16 00:26:22;;;;;;;;;;;11.80;99.90;;;;;;5032298;28;19959;-74
2021/10/16 00:28:47;;;;;;;;;;;11.80;99.90;;;;;;5032115;28;19927;-74
2021/10/16 00:31:13;;;;;;;;;;;11.50;99.90;;;;;;5032362;28;19953;-74
2021/10/16 00:33:39;;;;;;;;;;;11.30;99.90;;;;;;5032392;28;19905;-74
2021/10/16 00:36:04;;;;;;;;;;;11.20;99.90;;;;;;5032263;28;19928;-74
2021/10/16 00:38:30;;;;;;;;;;;11.10;99.90;;;;;;5032197;28;20360;-74
2021/10/16 00:40:55;;;;;;;;;;;11.30;99.90;;;;;;5032442;28;19905;-75
2021/10/16 00:43:21;;;;;;;;;;;11.40;99.90;;;;;;5032376;28;19909;-74
2021/10/16 00:45:47;;;;;;;;;;;11.30;99.90;;;;;;5014374;28;20284;-74
2021/10/16 00:48:12;;;;;;;;;;;11.30;99.90;;;;;;5032127;28;19996;-74
2021/10/16 00:50:38;;;;;;;;;;;11.20;99.90;;;;;;5032187;28;19909;-75
2021/10/16 00:53:04;;;;;;;;;;;11.00;99.90;;;;;;5032664;28;19912;-74
2021/10/16 00:55:29;;;;;;;;;;;11.00;99.90;;;;;;5032145;28;20284;-74
2021/10/16 00:57:58;;;;;;;;;;;11.00;99.90;;;;;;5014437;28;20272;-74
2021/10/16 01:00:23;;;;;;;;;;;11.00;99.90;;;;;;5032145;28;19905;-75
2021/10/16 01:02:49;;;;;;;;;;;11.20;99.90;;;;;;5030899;28;20254;-74
2021/10/16 01:05:14;;;;;;;;;;;11.00;99.90;;;;;;5031817;28;19967;-74
2021/10/16 01:07:40;;;;;;;;;;;10.90;99.90;;;;;;5031947;28;19905;-73
2021/10/16 01:10:07;;;;;;;;;;;11.20;99.90;;;;;;5014279;28;19904;-74
2021/10/16 01:12:33;;;;;;;;;;;11.20;99.90;;;;;;5032010;28;19963;-75
2021/10/16 01:15:02;;;;;;;;;;;11.10;99.90;;;;;;5031834;28;19905;-74
2021/10/16 01:17:31;;;;;;;;;;;11.00;99.90;;;;;;5031971;28;19927;-74
2021/10/16 01:20:02;;;;;;;;;;;10.90;99.90;;;;;;5031861;28;19912;-75
2021/10/16 01:22:28;;;;;;;;;;;10.90;99.90;;;;;;5031943;28;19921;-74
2021/10/16 01:24:53;;;;;;;;;;;10.80;99.90;;;;;;5031819;28;19959;-74
2021/10/16 01:27:19;;;;;;;;;;;10.70;99.90;;;;;;5033135;28;20316;-75
2021/10/16 01:29:45;;;;;;;;;;;10.80;99.90;;;;;;5035503;28;19905;-74
2021/10/16 01:32:12;;;;;;;;;;;10.80;99.90;;;;;;5035486;28;19908;-75
2021/10/16 01:34:37;;;;;;;;;;;10.80;99.90;;;;;;5035451;28;19905;-74
2021/10/16 01:37:03;;;;;;;;;;;10.70;99.90;;;;;;5017878;28;20043;-74
2021/10/16 01:39:30;;;;;;;;;;;10.70;99.90;;;;;;5035470;28;20388;-74
2021/10/16 01:41:56;;;;;;;;;;;10.80;99.90;;;;;;5017761;28;19905;-74
2021/10/16 01:44:22;;;;;;;;;;;11.00;99.90;;;;;;5035396;28;19916;-75
2021/10/16 01:46:47;;;;;;;;;;;10.90;99.90;;;;;;5035245;28;19905;-74
2021/10/16 01:49:14;;;;;;;;;;;10.80;99.90;;;;;;5035416;28;20317;-74
2021/10/16 01:51:40;;;;;;;;;;;10.80;99.90;;;;;;5035246;28;19956;-74
2021/10/16 01:54:06;;;;;;;;;;;11.00;99.90;;;;;;5017556;28;19911;-75
2021/10/16 01:56:32;;;;;;;;;;;11.00;99.90;;;;;;5035097;28;20407;-75
2021/10/16 01:59:15;;;;;;;;;;;11.10;99.90;;;;;;5035119;28;19905;-74
2021/10/16 02:01:41;;;;;;;;;;;11.10;99.90;;;;;;5035130;28;20000;-75
2021/10/16 02:04:06;;;;;;;;;;;11.10;99.90;;;;;;5035062;28;19937;-75
2021/10/16 02:06:32;;;;;;;;;;;11.20;99.90;;;;;;5017033;28;20360;-74
2021/10/16 02:08:57;;;;;;;;;;;11.30;99.90;;;;;;5033747;28;19996;-74
2021/10/16 02:11:23;;;;;;;;;;;11.40;99.90;;;;;;5017080;28;19932;-74
2021/10/16 02:13:49;;;;;;;;;;;11.50;99.90;;;;;;5034941;28;19988;-75
2021/10/16 02:16:14;;;;;;;;;;;11.50;99.90;;;;;;5034589;28;19905;-75
2021/10/16 02:18:40;;;;;;;;;;;11.50;99.90;;;;;;5034725;28;19939;-75
2021/10/16 02:21:05;;;;;;;;;;;11.50;99.90;;;;;;5034668;28;19916;-74
2021/10/16 02:23:31;;;;;;;;;;;11.40;99.90;;;;;;5034784;28;19909;-73
2021/10/16 02:25:57;;;;;;;;;;;11.50;99.90;;;;;;5034551;28;20360;-74
2021/10/16 02:28:22;;;;;;;;;;;11.30;99.90;;;;;;5034377;28;19905;-75
2021/10/16 02:30:48;;;;;;;;;;;11.10;99.90;;;;;;5034569;28;19915;-74
2021/10/16 02:33:13;;;;;;;;;;;11.00;99.90;;;;;;5034604;28;19972;-74
2021/10/16 02:35:39;;;;;;;;;;;10.80;99.90;;;;;;5016673;28;19912;-73
2021/10/16 02:38:06;;;;;;;;;;;10.90;99.90;;;;;;5034068;28;20269;-74
2021/10/16 02:40:32;;;;;;;;;;;10.80;99.90;;;;;;5016506;28;19936;-75
2021/10/16 02:43:00;;;;;;;;;;;10.90;99.90;;;;;;5034437;28;19904;-75
2021/10/16 02:45:26;;;;;;;;;;;10.90;99.90;;;;;;5034204;28;19905;-75
2021/10/16 02:47:51;;;;;;;;;;;10.80;99.90;;;;;;5016603;28;19909;-74
2021/10/16 02:50:17;;;;;;;;;;;10.80;99.90;;;;;;5016684;28;19905;-75
2021/10/16 02:52:42;;;;;;;;;;;10.70;99.90;;;;;;5034132;28;19971;-74
2021/10/16 02:55:08;;;;;;;;;;;10.80;99.90;;;;;;5033827;28;19909;-74
2021/10/16 02:57:34;;;;;;;;;;;10.60;99.90;;;;;;5034134;28;20419;-74
2021/10/16 03:00:03;;;;;;;;;;;10.70;99.90;;;;;;5033981;28;19905;-74
2021/10/16 03:02:29;;;;;;;;;;;10.80;99.90;;;;;;5034008;28;20388;-74
2021/10/16 03:04:54;;;;;;;;;;;10.90;99.90;;;;;;5033849;28;19958;-74
2021/10/16 03:07:20;;;;;;;;;;;10.80;99.90;;;;;;5016319;28;19905;-74
2021/10/16 03:09:46;;;;;;;;;;;10.80;99.90;;;;;;5033908;28;20361;-74
2021/10/16 03:12:11;;;;;;;;;;;10.80;99.90;;;;;;5033757;28;19913;-74
2021/10/16 03:14:37;;;;;;;;;;;10.90;99.90;;;;;;5032249;28;19916;-74
2021/10/16 03:17:03;;;;;;;;;;;10.90;99.90;;;;;;5033652;28;19905;-74
2021/10/16 03:19:28;;;;;;;;;;;10.70;99.90;;;;;;5015841;28;19905;-74
2021/10/16 03:21:56;;;;;;;;;;;10.60;99.90;;;;;;4999366;28;19913;-73
2021/10/16 03:24:22;;;;;;;;;;;10.50;99.90;;;;;;5033405;28;19909;-74
2021/10/16 03:26:48;;;;;;;;;;;10.70;99.90;;;;;;5015688;28;20412;-75
2021/10/16 03:29:13;;;;;;;;;;;10.70;99.90;;;;;;5033211;28;19952;-74
2021/10/16 03:31:39;;;;;;;;;;;10.70;99.90;;;;;;5033390;28;19909;-74
2021/10/16 03:34:05;;;;;;;;;;;10.70;99.90;;;;;;5033471;28;20412;-74
2021/10/16 03:36:31;;;;;;;;;;;10.80;99.90;;;;;;5033084;28;19909;-75
2021/10/16 03:38:56;;;;;;;;;;;10.80;99.90;;;;;;5033214;28;20005;-74
2021/10/16 03:41:22;;;;;;;;;;;10.80;99.90;;;;;;5015438;28;20262;-74
2021/10/16 03:43:47;;;;;;;;;;;10.80;99.90;;;;;;5033150;28;20365;-74
2021/10/16 03:46:13;;;;;;;;;;;10.80;99.90;;;;;;5033060;28;20098;-74
2021/10/16 03:48:39;;;;;;;;;;;10.60;99.90;;;;;;5033024;28;20012;-74
2021/10/16 03:51:04;;;;;;;;;;;10.70;99.90;;;;;;5032530;28;19916;-74
2021/10/16 03:53:30;;;;;;;;;;;10.70;99.90;;;;;;5033170;28;19905;-75
2021/10/16 03:55:55;;;;;;;;;;;10.80;99.90;;;;;;5015396;28;19928;-75
2021/10/16 03:58:21;;;;;;;;;;;10.80;99.90;;;;;;5032859;28;20039;-75
2021/10/16 04:00:48;;;;;;;;;;;10.80;99.90;;;;;;5033008;28;19905;-76
2021/10/16 04:03:14;;;;;;;;;;;10.90;99.90;;;;;;5015299;28;19905;-76
2021/10/16 04:05:40;;;;;;;;;;;10.90;99.90;;;;;;5032698;28;19904;-75
2021/10/16 04:08:08;;;;;;;;;;;10.90;99.90;;;;;;5032715;28;19905;-76
2021/10/16 04:10:34;;;;;;;;;;;10.80;99.90;;;;;;5032661;28;20364;-76
2021/10/16 04:13:00;;;;;;;;;;;10.90;99.90;;;;;;5014932;28;19905;-75
2021/10/16 04:15:25;;;;;;;;;;;11.00;99.90;;;;;;5032534;28;19955;-75
2021/10/16 04:17:51;;;;;;;;;;;10.80;99.90;;;;;;5032602;28;19909;-76
2021/10/16 04:20:17;;;;;;;;;;;10.80;99.90;;;;;;5032475;28;19974;-75
2021/10/16 04:22:42;;;;;;;;;;;10.70;99.90;;;;;;5032603;28;19935;-75
2021/10/16 04:25:08;;;;;;;;;;;10.60;99.90;;;;;;5032371;28;19912;-75
2021/10/16 04:27:34;;;;;;;;;;;10.50;99.90;;;;;;5032528;28;19912;-76
2021/10/16 04:29:59;;;;;;;;;;;10.40;99.90;;;;;;5032608;28;19905;-76
2021/10/16 04:32:25;;;;;;;;;;;10.40;99.90;;;;;;5014573;28;19909;-75
2021/10/16 04:34:51;;;;;;;;;;;10.30;99.90;;;;;;5032236;28;19962;-75
2021/10/16 04:37:16;;;;;;;;;;;10.30;99.90;;;;;;5032368;28;19999;-75
2021/10/16 04:39:43;;;;;;;;;;;10.30;99.90;;;;;;5032314;28;19952;-76
2021/10/16 04:42:11;;;;;;;;;;;10.30;99.90;;;;;;5032345;28;20319;-75
2021/10/16 04:44:37;;;;;;;;;;;10.20;99.90;;;;;;5014628;28;19905;-75
2021/10/16 04:47:03;;;;;;;;;;;10.40;99.90;;;;;;5032560;28;19905;-75
2021/10/16 04:49:29;;;;;;;;;;;10.60;99.90;;;;;;5014636;28;20245;-75
2021/10/16 04:51:54;;;;;;;;;;;10.60;99.90;;;;;;5030982;28;20360;-75
2021/10/16 04:54:20;;;;;;;;;;;10.70;99.90;;;;;;5014465;28;20373;-76
2021/10/16 04:56:46;;;;;;;;;;;10.60;99.90;;;;;;5032096;28;19927;-75
2021/10/16 04:59:11;;;;;;;;;;;10.60;99.90;;;;;;5031988;28;19945;-75
2021/10/16 05:01:37;;;;;;;;;;;10.60;99.90;;;;;;5032154;28;19908;-75
2021/10/16 05:04:02;;;;;;;;;;;10.60;99.90;;;;;;5036129;28;19905;-76
2021/10/16 05:06:32;;;;;;;;;;;10.60;99.90;;;;;;5036004;28;20053;-75
2021/10/16 05:08:58;;;;;;;;;;;10.60;99.90;;;;;;5036052;28;19951;-75
2021/10/16 05:11:23;;;;;;;;;;;10.70;99.90;;;;;;5036023;28;19917;-75
2021/10/16 05:13:49;;;;;;;;;;;10.60;99.90;;;;;;5036046;28;19905;-75
2021/10/16 05:16:14;;;;;;;;;;;10.40;99.90;;;;;;5035676;28;20045;-76
2021/10/16 05:18:40;;;;;;;;;;;10.20;99.90;;;;;;5036139;28;19986;-75
2021/10/16 05:21:06;;;;;;;;;;;10.00;99.90;;;;;;5018227;28;20377;-75
2021/10/16 05:23:32;;;;;;;;;;;10.00;99.90;;;;;;5035919;28;19945;-76
2021/10/16 05:25:58;;;;;;;;;;;9.80;99.90;;;;;;5001575;28;20281;-75
2021/10/16 05:28:24;;;;;;;;;;;9.80;99.90;;;;;;5035469;28;19908;-75
2021/10/16 05:30:50;;;;;;;;;;;9.80;99.90;;;;;;5035701;28;19959;-75
2021/10/16 05:33:15;;;;;;;;;;;9.90;99.90;;;;;;5035776;28;19959;-75
2021/10/16 05:35:44;;;;;;;;;;;10.00;99.90;;;;;;5035467;28;19905;-75
2021/10/16 05:38:10;;;;;;;;;;;9.80;99.90;;;;;;5035501;28;19905;-75
2021/10/16 05:40:35;;;;;;;;;;;9.40;99.90;;;;;;5035442;28;19971;-75
2021/10/16 05:43:01;;;;;;;;;;;9.50;99.90;;;;;;5035426;28;19905;-76
2021/10/16 05:45:27;;;;;;;;;;;9.40;99.90;;;;;;5035303;28;19909;-75
2021/10/16 05:47:52;;;;;;;;;;;9.40;99.90;;;;;;5035251;28;19909;-75
2021/10/16 05:50:18;;;;;;;;;;;9.50;99.90;;;;;;5035262;28;20283;-75
2021/10/16 05:52:43;;;;;;;;;;;9.60;99.90;;;;;;5025703;28;19913;-75
2021/10/16 05:55:09;;;;;;;;;;;9.60;99.90;;;;;;5032606;28;20425;-75
2021/10/16 05:57:35;;;;;;;;;;;9.60;99.90;;;;;;5016186;28;19952;-75
2021/10/16 06:00:01;;;;;;;;;;;9.40;99.90;;;;;;5003958;28;19999;-76
2021/10/16 06:02:27;;;;;;;;;;;9.50;99.90;;;;;;5035290;28;19905;-76
2021/10/16 06:04:52;;;;;;;;;;;9.70;99.90;;;;;;5034837;28;19905;-75
2021/10/16 06:07:18;;;;;;;;;;;9.80;99.90;;;;;;5017325;28;20364;-75
2021/10/16 06:09:43;;;;;;;;;;;9.80;99.90;;;;;;5018935;28;19951;-75
2021/10/16 06:12:09;;;;;;;;;;;9.90;99.90;;;;;;5032891;28;19909;-76
2021/10/16 06:14:35;;;;;;;;;;;9.90;99.90;;;;;;5030033;28;19974;-75
2021/10/16 06:17:00;;;;;;;;;;;9.80;99.90;;;;;;5016990;28;19963;-76
2021/10/16 06:19:26;;;;;;;;;;;9.80;99.90;;;;;;5034630;28;19988;-76
2021/10/16 06:21:51;;;;;;;;;;;9.80;99.90;;;;;;5034566;28;19924;-75
2021/10/16 06:24:17;;;;;;;;;;;9.80;99.90;;;;;;5016942;28;20292;-75
2021/10/16 06:26:43;;;;;;;;;;;9.80;99.90;;;;;;5017099;28;19912;-76
2021/10/16 06:29:08;;;;;;;;;;;9.70;99.90;;;;;;5034556;28;19905;-76
2021/10/16 06:31:34;;;;;;;;;;;9.80;99.90;;;;;;5032730;28;19917;-77
2021/10/16 06:34:00;;;;;;;;;;;9.90;99.90;;;;;;5010537;28;20280;-75
2021/10/16 06:36:25;;;;;;;;;;;9.90;99.90;;;;;;5034307;28;19905;-76
2021/10/16 06:38:51;;;;;;;;;;;9.90;99.90;;;;;;5034508;28;19909;-75
2021/10/16 06:41:17;;;;;;;;;;;9.90;99.90;;;;;;5006079;28;19906;-75
2021/10/16 06:43:43;;;;;;;;;;;9.90;99.90;;;;;;5008505;28;20250;-75
2021/10/16 06:46:09;;;;;;;;;;;10.00;99.90;;;;;;5016252;28;20340;-76
2021/10/16 06:48:34;;;;;;;;;;;10.00;99.90;;;;;;5000207;28;20008;-76
2021/10/16 06:51:00;;;;;;;;;;;9.90;99.90;;;;;;5014429;28;19996;-76
2021/10/16 06:53:26;;;;;;;;;;;9.90;99.90;;;;;;4997199;28;20357;-76
2021/10/16 06:55:51;;;;;;;;;;;9.90;99.90;;;;;;5013763;28;19909;-75
2021/10/16 06:58:17;;;;;;;;;;;10.00;99.90;;;;;;5014167;28;20357;-76
2021/10/16 07:00:43;;;;;;;;;;;10.10;99.90;;;;;;4996536;28;19941;-76
2021/10/16 07:03:13;;;;;;;;;;;10.10;99.90;;;;;;4996901;28;19992;-76
2021/10/16 07:05:40;;;;;;;;;;;10.20;99.90;;;;;;4999396;28;19963;-76
2021/10/16 07:08:05;;;;;;;;;;;10.40;99.90;;;;;;5033761;28;20403;-75
2021/10/16 07:10:31;;;;;;;;;;;10.50;99.90;;;;;;5033813;28;19909;-75
2021/10/16 07:13:01;;;;;;;;;;;10.30;99.90;;;;;;5033747;28;19948;-75
2021/10/16 07:15:26;;;;;;;;;;;10.30;99.90;;;;;;5033595;28;19958;-75
2021/10/16 07:17:52;;;;;;;;;;;10.30;99.90;;;;;;5015617;28;20253;-76
2021/10/16 07:20:18;;;;;;;;;;;10.40;99.90;;;;;;5033869;28;19964;-75
2021/10/16 07:22:44;;;;;;;;;;;10.60;99.90;;;;;;5015674;28;19956;-75
2021/10/16 07:25:10;;;;;;;;;;;10.70;99.90;;;;;;5032739;28;20280;-76
2021/10/16 07:27:36;;;;;;;;;;;10.80;99.90;;;;;;5033449;28;19971;-76
2021/10/16 07:30:01;;;;;;;;;;;10.80;99.90;;;;;;5033528;28;19916;-75
2021/10/16 07:32:27;;;;;;;;;;;10.70;99.90;;;;;;5033415;28;20369;-75
2021/10/16 07:34:53;;;;;;;;;;;10.70;99.90;;;;;;5033175;28;20256;-75
2021/10/16 07:37:18;;;;;;;;;;;10.80;99.90;;;;;;5015774;28;19912;-76
2021/10/16 07:39:44;;;;;;;;;;;10.80;99.90;;;;;;5015429;28;20313;-75
2021/10/16 07:42:10;;;;;;;;;;;10.90;99.90;;;;;;5015485;28;19999;-76
2021/10/16 07:44:35;;;;;;;;;;;11.10;99.90;;;;;;5015322;28;19905;-76
2021/10/16 07:47:01;;;;;;;;;;;11.30;99.90;;;;;;5015211;28;19999;-76
2021/10/16 07:49:27;;;;;;;;;;;11.40;99.90;;;;;;5015337;28;19905;-76
2021/10/16 07:51:52;;;;;;;;;;;11.40;99.90;;;;;;5033027;28;19909;-78
2021/10/16 07:54:18;;;;;;;;;;;11.30;99.90;;;;;;5032973;28;19928;-76
2021/10/16 07:56:44;;;;;;;;;;;11.40;99.90;;;;;;5033066;28;19999;-77
2021/10/16 07:59:10;;;;;;;;;;;11.30;99.90;;;;;;5033013;28;19984;-77
2021/10/16 08:01:35;;;;;;;;;;;11.40;99.90;;;;;;5033287;28;19943;-76
2021/10/16 08:04:01;;;;;;;;;;;11.50;99.90;;;;;;5015678;28;19999;-76
2021/10/16 08:06:27;;;;;;;;;;;11.80;99.90;;;;;;5032742;28;19912;-80
2021/10/16 08:08:52;;;;;;;;;;;12.10;99.90;;;;;;4998814;28;19948;-74
2021/10/16 08:11:18;;;;;;;;;;;12.30;99.90;;;;;;5032405;28;19908;-74
2021/10/16 08:13:44;;;;;;;;;;;12.40;99.90;;;;;;5033186;28;20360;-74
2021/10/16 08:16:09;;;;;;;;;;;12.50;99.90;;;;;;5015941;28;19905;-74
2021/10/16 08:18:35;;;;;;;;;;;12.40;99.90;;;;;;5032409;28;19909;-74
2021/10/16 08:21:01;;;;;;;;;;;12.20;99.90;;;;;;5034096;28;19909;-74
2021/10/16 08:23:26;;;;;;;;;;;12.10;99.90;;;;;;5034184;28;19920;-75
2021/10/16 08:25:52;;;;;;;;;;;12.20;99.90;;;;;;5032363;28;20048;-75
2021/10/16 08:28:18;;;;;;;;;;;12.50;99.90;;;;;;5032370;28;20392;-73
2021/10/16 08:30:50;;;;;;;;;;;12.70;99.90;;;;;;5032463;28;20300;-74
2021/10/16 08:33:19;;;;;;;;;;;12.90;99.90;;;;;;5032726;28;19909;-74
2021/10/16 08:35:45;;;;;;;;;;;13.10;99.90;;;;;;5032164;28;20016;-74
2021/10/16 08:38:11;;;;;;;;;;;12.90;99.90;;;;;;5032388;28;19920;-75
2021/10/16 08:40:37;;;;;;;;;;;13.10;99.90;;;;;;5032300;28;19996;-74
2021/10/16 08:43:03;;;;;;;;;;;13.20;99.90;;;;;;5032296;28;19905;-74
2021/10/16 08:45:29;;;;;;;;;;;13.30;99.90;;;;;;5032361;28;19905;-74
2021/10/16 08:47:54;;;;;;;;;;;13.40;99.90;;;;;;5032143;28;20455;-75
2021/10/16 08:50:21;;;;;;;;;;;13.40;99.90;;;;;;5032237;28;19905;-74
2021/10/16 08:52:47;;;;;;;;;;;13.10;99.90;;;;;;5031149;28;20273;-74
2021/10/16 08:55:13;;;;;;;;;;;13.10;99.90;;;;;;5032076;28;19905;-74
2021/10/16 08:57:38;;;;;;;;;;;13.10;99.90;;;;;;5014713;28;19905;-73
2021/10/16 09:00:23;;;;;;;;;;;13.20;99.90;;;;;;5014615;28;19905;-75
2021/10/16 09:02:48;;;;;;;;;;;13.30;99.90;;;;;;5032276;28;19905;-77
2021/10/16 09:05:14;;;;;;;;;;;13.50;99.90;;;;;;5031959;28;20315;-74
2021/10/16 09:07:40;;;;;;;;;;;13.70;99.90;;;;;;5032206;28;19905;-74
2021/10/16 09:10:34;;;;;;;;;;;13.90;99.90;;;;;;5032187;28;19928;-74
2021/10/16 09:13:00;;;;;;;;;;;14.00;99.90;;;;;;5023164;28;20346;-74
2021/10/16 09:15:26;;;;;;;;;;;14.20;99.90;;;;;;5014252;28;19905;-76
2021/10/16 09:18:00;;;;;;;;;;;14.40;99.90;;;;;;5032633;28;19909;-76
2021/10/16 09:20:34;;;;;;;;;;;14.40;99.90;;;;;;5031949;28;19916;-76
2021/10/16 09:23:06;;;;;;;;;;;14.50;99.90;;;;;;5011400;28;19922;-76
2021/10/16 09:25:32;;;;;;;;;;;14.90;99.90;;;;;;5017185;28;20000;-76
2021/10/16 09:28:16;;;;;;;;;;;15.50;98.60;;;;;;5029048;28;20383;-76
2021/10/16 09:30:43;;;;;;;;;;;16.10;95.50;;;;;;5014504;28;19916;-76
2021/10/16 09:33:08;;;;;;;;;;;16.60;93.70;;;;;;5031982;28;20021;-76
2021/10/16 09:35:35;;;;;;;;;;;17.10;92.30;;;;;;5031900;28;19948;-75
2021/10/16 09:38:00;;;;;;;;;;;17.40;89.80;;;;;;5013922;28;20261;-74
2021/10/16 09:40:40;;;;;;;;;;;17.90;87.00;;;;;;5031769;28;19912;-73
2021/10/16 09:43:17;;;;;;;;;;;17.80;82.90;;;;;;5031707;28;20337;-74
2021/10/16 09:45:44;;;;;;;;;;;18.30;81.60;;;;;;5031564;28;20417;-75
2021/10/16 09:48:10;;;;;;;;;;;18.80;77.10;;;;;;5032694;28;19905;-74
2021/10/16 09:50:36;;;;;;;;;;;18.80;75.70;;;;;;5035807;28;20383;-74
2021/10/16 09:53:16;;;;;;;;;;;19.00;73.60;;;;;;5017694;28;19913;-74
2021/10/16 09:55:42;;;;;;;;;;;19.20;72.30;;;;;;5035034;28;20307;-73
2021/10/16 09:58:08;;;;;;;;;;;19.70;70.60;;;;;;5035257;28;19905;-74
2021/10/16 10:00:35;;;;;;;;;;;19.80;68.30;;;;;;5035126;28;20031;-72
2021/10/16 10:03:01;;;;;;;;;;;20.10;68.00;;;;;;5017770;28;20348;-73
2021/10/16 10:05:27;;;;;;;;;;;20.50;66.10;;;;;;5017165;28;19905;-74
2021/10/16 10:07:53;;;;;;;;;;;20.80;64.80;;;;;;5035080;28;19905;-73
2021/10/16 10:10:19;;;;;;;;;;;21.00;62.80;;;;;;5035395;28;20269;-73
2021/10/16 10:12:45;;;;;;;;;;;21.00;62.20;;;;;;5034880;28;19909;-73
2021/10/16 10:15:11;;;;;;;;;;;21.20;61.50;;;;;;5034788;28;19905;-72
2021/10/16 10:17:37;;;;;;;;;;;21.10;61.10;;;;;;5034821;28;19913;-72
2021/10/16 10:20:04;;;;;;;;;;;21.40;61.10;;;;;;5017395;28;19916;-72
2021/10/16 10:22:31;;;;;;;;;;;21.50;60.00;;;;;;5047296;23;19921;-72
2021/10/16 10:24:57;;;;;;;;;;;21.70;58.90;;;;;;5034333;28;19959;-73
2021/10/16 10:27:23;;;;;;;;;;;21.70;58.90;;;;;;5034644;28;19905;-72
2021/10/16 10:29:51;;;;;;;;;;;21.60;59.00;;;;;;5052615;28;20310;-72
2021/10/16 10:32:24;;;;;;;;;;;21.30;59.20;;;;;;5054555;28;20354;-74
2021/10/16 10:34:52;;;;;;;;;;;21.70;59.40;;;;;;5054110;28;19905;-72
2021/10/16 10:37:18;;;;;;;;;;;21.50;57.80;;;;;;5036480;28;20257;-72
2021/10/16 10:39:45;;;;;;;;;;;21.60;58.90;;;;;;5036193;28;19911;-72
2021/10/16 10:42:14;;;;;;;;;;;21.50;59.10;;;;;;5036524;28;20261;-73
2021/10/16 10:44:39;;;;;;;;;;;22.00;58.30;;;;;;5035956;28;19904;-72
2021/10/16 10:47:24;;;;;;;;;;;22.40;57.10;;;;;;5053531;28;20368;-72
2021/10/16 10:49:50;;;;;;;;;;;22.60;56.40;;;;;;5036034;28;19971;-73
2021/10/16 10:52:16;;;;;;;;;;;23.00;55.80;;;;;;5035970;28;20441;-72
2021/10/16 10:55:06;;;;;;;;;;;22.70;55.30;;;;;;5053863;28;20166;-72
2021/10/16 10:57:48;;;;;;;;;;;21.70;56.00;;;;;;5054216;28;19905;-72
2021/10/16 11:00:15;;;;;;;;;;;21.40;58.20;;;;;;5052836;28;19911;-72
2021/10/16 11:02:41;;;;;;;;;;;21.80;57.00;;;;;;5053778;28;19905;-71
2021/10/16 11:05:33;;;;;;;;;;;20.00;59.90;;;;;;5053657;28;19904;-72
2021/10/16 11:08:07;;;;;;;;;;;19.40;63.40;;;;;;5053762;28;19974;-74
2021/10/16 11:10:33;;;;;;;;;;;19.00;64.60;;;;;;5035939;28;20387;-73
2021/10/16 11:13:09;;;;;;;;;;;18.30;66.60;;;;;;5053400;28;19908;-73
2021/10/16 11:15:34;;;;;;;;;;;17.80;69.40;;;;;;5053554;28;19904;-73
2021/10/16 11:18:07;;;;;;;;;;;18.60;66.80;;;;;;5053562;28;19915;-73
2021/10/16 11:20:34;;;;;;;;;;;19.50;64.70;;;;;;5053585;28;19947;-73
2021/10/16 11:22:59;;;;;;;;;;;20.20;61.40;;;;;;5035633;28;19966;-73
2021/10/16 11:25:26;;;;;;;;;;;19.80;61.00;;;;;;5035369;28;20280;-73
2021/10/16 11:27:59;;;;;;;;;;;19.10;63.80;;;;;;5017829;28;19966;-73
2021/10/16 11:30:25;;;;;;;;;;;18.60;65.90;;;;;;5053252;28;19943;-73
2021/10/16 11:32:50;;;;;;;;;;;17.70;68.10;;;;;;5053164;28;19956;-73
2021/10/16 11:35:16;;;;;;;;;;;17.10;70.70;;;;;;5035204;28;19951;-73
2021/10/16 11:37:46;;;;;;;;;;;16.70;72.00;;;;;;5035336;28;20380;-73
2021/10/16 11:40:20;;;;;;;;;;;16.40;72.30;;;;;;5053172;28;19996;-72
2021/10/16 11:42:51;;;;;;;;;;;17.30;72.30;;;;;;5053088;28;20434;-73
2021/10/16 11:45:18;;;;;;;;;;;18.80;66.30;;;;;;5034922;28;19995;-73
2021/10/16 11:47:47;;;;;;;;;;;19.60;64.30;;;;;;5018768;28;19995;-73
2021/10/16 11:50:18;;;;;;;;;;;20.60;60.50;;;;;;5052889;28;19991;-73
2021/10/16 11:52:47;;;;;;;;;;;21.30;57.60;;;;;;5034985;28;19912;-73
2021/10/16 11:55:21;;;;;;;;;;;21.70;57.00;;;;;;5051393;28;20010;-73
2021/10/16 11:57:47;;;;;;;;;;;21.80;56.00;;;;;;5033018;28;20375;-73
2021/10/16 12:00:19;;;;;;;;;;;21.20;58.60;;;;;;5033333;28;19912;-73
2021/10/16 12:02:45;;;;;;;;;;;21.20;57.50;;;;;;5051265;28;19928;-72
2021/10/16 12:05:11;;;;;;;;;;;21.30;57.30;;;;;;5052229;28;19904;-73
2021/10/16 12:07:36;;;;;;;;;;;21.60;56.30;;;;;;5018189;28;19905;-73
2021/10/16 12:10:20;;;;;;;;;;;21.60;55.40;;;;;;5052613;28;20391;-73
2021/10/16 12:12:56;;;;;;;;;;;22.10;54.60;;;;;;5018010;28;19909;-73
2021/10/16 12:15:22;;;;;;;;;;;21.60;54.30;;;;;;5034623;28;19966;-77
2021/10/16 12:17:48;;;;;;;;;;;21.00;55.20;;;;;;5019007;28;19991;-77
2021/10/16 12:20:14;;;;;;;;;;;20.70;57.30;;;;;;5019182;28;19944;-76
2021/10/16 12:23:00;;;;;;;;;;;21.20;55.60;;;;;;5036612;28;19913;-79
2021/10/16 12:25:26;;;;;;;;;;;21.60;54.50;;;;;;5053445;28;19915;-78
2021/10/16 12:27:58;;;;;;;;;;;21.10;54.00;;;;;;5036026;28;19908;-78
2021/10/16 12:30:24;;;;;;;;;;;21.40;55.00;;;;;;5019848;28;19912;-80
2021/10/16 12:33:02;;;;;;;;;;;21.90;53.50;;;;;;5036171;28;19913;-78
2021/10/16 12:35:28;;;;;;;;;;;21.50;53.80;;;;;;5018765;28;19920;-79
2021/10/16 12:37:58;;;;;;;;;;;21.70;53.70;;;;;;5035401;28;19904;-78
2021/10/16 12:40:37;;;;;;;;;;;21.40;53.80;;;;;;5018967;28;20334;-77
2021/10/16 12:43:02;;;;;;;;;;;21.50;55.10;;;;;;5018743;28;20316;-79
2021/10/16 12:45:36;;;;;;;;;;;22.00;53.40;;;;;;5035158;28;19998;-77
2021/10/16 12:48:21;;;;;;;;;;;21.60;54.30;;;;;;5034787;28;20438;-78
2021/10/16 12:50:51;;;;;;;;;;;22.00;54.90;;;;;;5035524;28;19961;-80
2021/10/16 12:53:17;;;;;;;;;;;22.20;54.00;;;;;;5035415;28;19927;-79
2021/10/16 12:55:42;;;;;;;;;;;21.80;54.20;;;;;;5019173;28;19915;-82
2021/10/16 12:58:08;;;;;;;;;;;21.10;55.00;;;;;;5019081;28;19952;-81
2021/10/16 13:00:36;;;;;;;;;;;20.40;56.30;;;;;;5035922;28;19966;-80
2021/10/16 13:03:05;;;;;;;;;;;19.70;58.40;;;;;;5019160;28;20386;-78
2021/10/16 13:05:31;;;;;;;;;;;19.30;60.00;;;;;;5052619;28;19905;-79
2021/10/16 13:07:57;;;;;;;;;;;18.40;62.50;;;;;;5035627;28;20015;-78
2021/10/16 13:10:22;;;;;;;;;;;18.10;64.50;;;;;;5018801;28;20345;-79
2021/10/16 13:12:48;;;;;;;;;;;18.00;63.80;;;;;;5035026;28;19913;-76
2021/10/16 13:15:14;;;;;;;;;;;18.20;63.00;;;;;;5018608;28;19984;-78
2021/10/16 13:17:40;;;;;;;;;;;18.10;61.70;;;;;;5019467;28;19954;-78
2021/10/16 13:20:07;;;;;;;;;;;18.40;61.90;;;;;;5018867;28;20420;-79
2021/10/16 13:22:32;;;;;;;;;;;18.10;60.60;;;;;;5035777;28;20269;-78
2021/10/16 13:24:59;;;;;;;;;;;17.90;63.90;;;;;;5057636;28;19916;-79
2021/10/16 13:27:28;;;;;;;;;;;17.90;63.30;;;;;;5023230;28;19909;-78
2021/10/16 13:29:54;;;;;;;;;;;17.60;65.50;;;;;;5039045;28;19904;-79
2021/10/16 13:32:19;;;;;;;;;;;17.40;65.90;;;;;;5022334;28;19908;-79
2021/10/16 13:34:47;;;;;;;;;;;17.40;65.20;;;;;;5038700;28;19943;-78
2021/10/16 13:37:13;;;;;;;;;;;17.10;65.10;;;;;;5022549;28;19988;-78
2021/10/16 13:39:39;;;;;;;;;;;17.20;66.50;;;;;;5022296;28;19905;-78
2021/10/16 13:42:05;;;;;;;;;;;17.10;66.40;;;;;;5039102;28;19974;-80
2021/10/16 13:44:32;;;;;;;;;;;17.30;66.20;;;;;;5038898;28;20314;-80
2021/10/16 13:46:58;;;;;;;;;;;17.30;66.80;;;;;;5056075;28;20272;-81
2021/10/16 13:49:23;;;;;;;;;;;17.40;67.10;;;;;;5021942;28;19905;-82
2021/10/16 13:51:49;;;;;;;;;;;17.20;65.90;;;;;;5022298;28;19909;-81
2021/10/16 13:54:14;;;;;;;;;;;17.20;66.30;;;;;;5022066;28;19904;-80
2021/10/16 13:56:40;;;;;;;;;;;16.90;68.80;;;;;;5055795;28;20360;-73
2021/10/16 13:59:08;;;;;;;;;;;16.80;68.70;;;;;;5037165;28;19905;-72
2021/10/16 14:01:34;;;;;;;;;;;16.70;69.90;;;;;;5037272;28;19905;-72
2021/10/16 14:03:59;;;;;;;;;;;16.60;71.40;;;;;;5054680;28;19905;-72
2021/10/16 14:06:25;;;;;;;;;;;16.80;70.80;;;;;;5054771;28;19987;-72
2021/10/16 14:08:50;;;;;;;;;;;16.90;70.30;;;;;;5037073;28;19931;-72
2021/10/16 14:11:16;;;;;;;;;;;16.90;70.60;;;;;;5054654;28;20358;-72
2021/10/16 14:13:42;;;;;;;;;;;16.80;69.20;;;;;;5054678;28;19958;-72
2021/10/16 14:16:12;;;;;;;;;;;16.70;67.90;;;;;;5054380;28;20014;-72
2021/10/16 14:18:44;;;;;;;;;;;16.40;66.20;;;;;;5054727;28;19999;-72